Time;durP1;ratioP1;P1;durP2;ratioP2;P2;SDS_P1;SDS_P2;PMS_P1;PMS_P2;Temp;Humidity;BMP_temperature;BMP_pressure;BME280_temperature;BME280_humidity;BME280_pressure;Samples;Min_cycle;Max_cycle;Signal;HPM_P1;HPM_P2
2023/06/12 00:01:09;;;;;;;7.07;5.28;;;18.30;99.90;;;;;;5071325;28;20325;-66
2023/06/12 00:03:35;;;;;;;9.02;5.35;;;18.30;99.90;;;;;;5051866;28;20260;-68
2023/06/12 00:06:01;;;;;;;10.15;5.80;;;18.20;99.90;;;;;;5051775;28;20359;-68
2023/06/12 00:08:29;;;;;;;7.97;5.72;;;18.20;99.90;;;;;;5051659;28;20646;-67
2023/06/12 00:10:54;;;;;;;9.82;5.78;;;18.20;99.90;;;;;;5051520;28;20176;-68
2023/06/12 00:13:20;;;;;;;8.25;5.70;;;18.20;99.90;;;;;;5051802;28;20560;-67
2023/06/12 00:15:46;;;;;;;11.55;5.32;;;18.30;99.90;;;;;;5051444;28;20577;-67
2023/06/12 00:18:12;;;;;;;10.45;5.97;;;18.30;99.90;;;;;;5051477;28;20173;-67
2023/06/12 00:20:38;;;;;;;8.70;5.40;;;18.30;99.90;;;;;;5033555;28;20170;-67
2023/06/12 00:23:04;;;;;;;8.13;5.38;;;18.30;99.90;;;;;;5051282;28;20219;-66
2023/06/12 00:25:30;;;;;;;11.43;5.55;;;18.20;99.90;;;;;;5051440;28;20224;-67
2023/06/12 00:27:56;;;;;;;8.07;5.50;;;18.20;99.90;;;;;;5058629;28;20172;-68
2023/06/12 00:30:21;;;;;;;9.52;5.60;;;18.20;99.90;;;;;;5069596;28;20160;-64
2023/06/12 00:32:47;;;;;;;11.25;6.03;;;18.20;99.90;;;;;;5054829;28;20673;-69
2023/06/12 00:35:14;;;;;;;9.25;5.70;;;18.10;99.90;;;;;;5060644;28;20171;-69
2023/06/12 00:37:41;;;;;;;8.98;5.75;;;18.00;99.90;;;;;;5056685;28;20260;-67
2023/06/12 00:40:09;;;;;;;9.60;6.70;;;18.00;99.90;;;;;;5068927;28;20271;-68
2023/06/12 00:42:41;;;;;;;9.80;7.00;;;18.10;99.90;;;;;;5053009;28;20173;-70
2023/06/12 00:45:08;;;;;;;10.85;7.13;;;18.00;99.90;;;;;;5055123;28;20180;-68
2023/06/12 00:47:34;;;;;;;10.57;8.13;;;18.00;99.90;;;;;;5066000;28;20827;-67
2023/06/12 00:50:01;;;;;;;11.30;8.55;;;17.90;99.90;;;;;;5071032;28;20647;-69
2023/06/12 00:52:29;;;;;;;10.38;8.65;;;18.00;99.90;;;;;;5070977;28;20552;-69
2023/06/12 00:54:56;;;;;;;14.20;9.07;;;17.90;99.90;;;;;;5071180;28;20172;-70
2023/06/12 00:57:22;;;;;;;12.73;8.40;;;18.00;99.90;;;;;;5071040;28;20172;-70
2023/06/12 00:59:49;;;;;;;12.45;8.80;;;18.00;99.90;;;;;;5071132;28;20174;-69
2023/06/12 01:02:14;;;;;;;14.73;9.23;;;18.00;99.90;;;;;;5071039;28;20168;-68
2023/06/12 01:04:42;;;;;;;15.68;9.32;;;17.90;99.90;;;;;;5070908;28;20210;-69
2023/06/12 01:07:34;;;;;;;14.98;9.27;;;17.90;99.90;;;;;;5070806;28;20173;-70
2023/06/12 01:10:05;;;;;;;16.63;9.65;;;17.90;99.90;;;;;;5070522;28;20341;-69
2023/06/12 01:12:32;;;;;;;17.08;10.05;;;17.80;99.90;;;;;;5070808;28;20215;-69
2023/06/12 01:14:58;;;;;;;13.40;9.70;;;17.80;99.90;;;;;;5070929;28;20177;-68
2023/06/12 01:17:27;;;;;;;13.73;9.57;;;17.70;99.90;;;;;;5070747;28;20203;-68
2023/06/12 01:19:56;;;;;;;12.15;9.38;;;17.70;99.90;;;;;;5070942;28;20193;-69
2023/06/12 01:22:24;;;;;;;13.48;10.45;;;17.70;99.90;;;;;;5070689;28;20164;-68
2023/06/12 01:25:11;;;;;;;11.82;9.82;;;17.70;99.90;;;;;;5070672;28;20377;-69
2023/06/12 01:27:37;;;;;;;12.63;9.10;;;17.70;99.90;;;;;;5069521;28;20171;-68
2023/06/12 01:30:42;;;;;;;14.10;9.75;;;17.70;99.90;;;;;;5070875;28;20161;-69
2023/06/12 01:33:13;;;;;;;12.98;9.75;;;17.70;99.90;;;;;;5070419;28;20204;-69
2023/06/12 01:35:43;;;;;;;15.25;9.55;;;17.70;99.90;;;;;;5070780;28;20264;-69
2023/06/12 01:38:18;;;;;;;13.82;10.07;;;17.70;99.90;;;;;;5070409;28;20232;-68
2023/06/12 01:40:46;;;;;;;11.80;9.27;;;17.60;99.90;;;;;;5070606;28;20655;-70
2023/06/12 01:43:12;;;;;;;13.20;9.73;;;17.70;99.90;;;;;;5055925;28;20177;-70
2023/06/12 01:45:38;;;;;;;13.43;9.30;;;17.70;99.90;;;;;;5032651;28;20177;-70
2023/06/12 01:48:05;;;;;;;11.55;9.57;;;18.70;99.90;;;;;;5050446;28;20197;-71
2023/06/12 01:50:31;;;;;;;12.82;10.40;;;17.70;99.90;;;;;;5050941;28;20169;-69
2023/06/12 01:52:56;;;;;;;11.02;9.55;;;17.60;99.90;;;;;;5066536;28;20205;-69
2023/06/12 01:55:22;;;;;;;13.10;9.80;;;17.60;99.90;;;;;;5061398;28;20519;-69
2023/06/12 01:57:51;;;;;;;15.25;10.25;;;17.60;99.90;;;;;;5052771;28;20652;-69
2023/06/12 02:00:18;;;;;;;12.65;9.93;;;17.60;99.90;;;;;;5058336;28;20183;-68
2023/06/12 02:02:45;;;;;;;14.43;10.23;;;17.70;99.90;;;;;;5063855;28;20947;-70
2023/06/12 02:05:11;;;;;;;17.92;10.55;;;17.70;99.90;;;;;;5070575;28;20181;-68
2023/06/12 02:07:37;;;;;;;15.77;10.27;;;17.60;99.90;;;;;;5073359;28;20208;-69
2023/06/12 02:10:03;;;;;;;14.30;11.13;;;17.60;99.90;;;;;;5074200;28;20230;-69
2023/06/12 02:12:32;;;;;;;14.00;10.68;;;17.50;99.90;;;;;;5077032;28;20212;-69
2023/06/12 02:14:59;;;;;;;15.30;9.52;;;17.50;99.90;;;;;;5075695;28;20175;-69
2023/06/12 02:17:24;;;;;;;13.35;9.25;;;17.50;99.90;;;;;;5083917;28;20173;-69
2023/06/12 02:19:50;;;;;;;20.38;12.32;;;17.50;99.90;;;;;;5073762;28;20696;-68
2023/06/12 02:22:15;;;;;;;16.15;12.45;;;17.40;99.90;;;;;;5069477;28;20527;-68
2023/06/12 02:24:41;;;;;;;19.23;12.60;;;17.40;99.90;;;;;;5056332;28;20200;-68
2023/06/12 02:27:07;;;;;;;18.23;12.52;;;17.40;99.90;;;;;;5074082;28;20172;-66
2023/06/12 02:29:33;;;;;;;18.67;12.65;;;17.40;99.90;;;;;;5073889;28;20176;-68
2023/06/12 02:31:58;;;;;;;20.70;13.07;;;17.40;99.90;;;;;;5073404;28;20203;-69
2023/06/12 02:34:24;;;;;;;17.67;11.55;;;17.40;99.90;;;;;;5073339;28;20662;-68
2023/06/12 02:36:50;;;;;;;18.42;13.35;;;17.30;99.90;;;;;;5073330;28;20254;-69
2023/06/12 02:39:17;;;;;;;14.52;12.05;;;17.30;99.90;;;;;;5073440;28;20460;-69
2023/06/12 02:41:45;;;;;;;16.92;12.50;;;17.30;99.90;;;;;;5073411;28;20260;-70
2023/06/12 02:44:11;;;;;;;17.33;12.18;;;17.30;99.90;;;;;;5073340;28;20180;-70
2023/06/12 02:46:57;;;;;;;15.75;11.52;;;17.30;99.90;;;;;;5073429;28;20177;-70
2023/06/12 02:49:24;;;;;;;16.67;11.60;;;17.30;99.90;;;;;;5073192;28;20181;-70
2023/06/12 02:51:50;;;;;;;18.33;12.68;;;17.30;99.90;;;;;;5073157;28;20208;-69
2023/06/12 02:54:17;;;;;;;16.60;12.00;;;17.30;99.90;;;;;;5073191;28;20185;-69
2023/06/12 02:56:46;;;;;;;17.65;12.68;;;17.30;99.90;;;;;;5072733;28;20708;-69
2023/06/12 02:59:19;;;;;;;17.27;12.45;;;17.30;99.90;;;;;;5072853;28;20177;-69
2023/06/12 03:01:45;;;;;;;19.02;13.30;;;17.30;99.90;;;;;;5072712;28;20195;-69
2023/06/12 03:04:20;;;;;;;23.83;13.35;;;17.40;99.90;;;;;;5072402;28;20176;-68
2023/06/12 03:06:48;;;;;;;18.63;13.70;;;17.30;99.90;;;;;;5072774;28;20183;-69
2023/06/12 03:09:15;;;;;;;18.50;14.20;;;17.30;99.90;;;;;;5060774;28;20256;-65
2023/06/12 03:11:43;;;;;;;21.80;14.20;;;17.30;99.90;;;;;;5065204;28;20231;-70
2023/06/12 03:14:09;;;;;;;22.35;14.57;;;17.30;99.90;;;;;;5072795;28;20184;-70
2023/06/12 03:16:36;;;;;;;23.33;14.18;;;17.30;99.90;;;;;;5072783;28;20215;-69
2023/06/12 03:19:02;;;;;;;20.42;14.35;;;17.30;99.90;;;;;;5071460;28;20184;-71
2023/06/12 03:21:27;;;;;;;23.52;15.75;;;17.20;99.90;;;;;;5068705;28;20701;-69
2023/06/12 03:23:53;;;;;;;21.08;15.65;;;17.20;99.90;;;;;;5070487;28;20168;-69
2023/06/12 03:26:19;;;;;;;20.65;15.65;;;17.20;99.90;;;;;;5057718;28;20197;-68
2023/06/12 03:28:45;;;;;;;22.45;15.27;;;17.20;99.90;;;;;;5070925;28;20181;-68
2023/06/12 03:31:11;;;;;;;22.98;15.77;;;17.10;99.90;;;;;;5066778;28;20248;-69
2023/06/12 03:33:37;;;;;;;21.77;15.73;;;17.10;99.90;;;;;;5052380;28;20169;-68
2023/06/12 03:36:03;;;;;;;23.17;15.18;;;17.10;99.90;;;;;;5071289;28;20168;-68
2023/06/12 03:38:29;;;;;;;19.67;14.45;;;17.20;99.90;;;;;;5068180;28;20224;-68
2023/06/12 03:40:54;;;;;;;24.88;15.93;;;17.20;99.90;;;;;;5052331;28;20173;-68
2023/06/12 03:43:20;;;;;;;21.48;14.70;;;17.20;99.90;;;;;;5052107;28;20246;-67
2023/06/12 03:45:46;;;;;;;26.13;15.57;;;17.20;99.90;;;;;;5052132;28;20173;-68
2023/06/12 03:48:12;;;;;;;25.17;15.63;;;17.10;99.90;;;;;;5052062;28;20188;-68
2023/06/12 03:50:38;;;;;;;26.67;16.02;;;17.10;99.90;;;;;;5052110;28;20621;-67
2023/06/12 03:53:03;;;;;;;23.70;15.85;;;17.10;99.90;;;;;;5052036;28;20205;-67
2023/06/12 03:55:29;;;;;;;23.08;15.95;;;17.10;99.90;;;;;;5050559;28;20205;-67
2023/06/12 03:57:55;;;;;;;24.00;16.73;;;17.10;99.90;;;;;;5071609;28;20176;-67
2023/06/12 04:00:21;;;;;;;23.83;16.45;;;17.10;99.90;;;;;;5071684;28;20743;-67
2023/06/12 04:02:47;;;;;;;24.52;17.20;;;17.10;99.90;;;;;;5068844;28;20169;-67
2023/06/12 04:05:12;;;;;;;28.30;16.08;;;17.20;99.90;;;;;;5062013;28;20164;-67
2023/06/12 04:07:39;;;;;;;24.25;16.60;;;17.20;99.90;;;;;;5071631;28;20623;-67
2023/06/12 04:10:07;;;;;;;24.33;16.85;;;17.10;99.90;;;;;;5071552;28;20259;-68
2023/06/12 04:12:33;;;;;;;25.05;16.50;;;17.10;99.90;;;;;;5071472;28;20207;-68
2023/06/12 04:14:59;;;;;;;23.63;17.15;;;17.20;99.90;;;;;;5071648;28;20632;-68
2023/06/12 04:17:24;;;;;;;24.33;17.35;;;17.10;99.90;;;;;;5071732;28;20268;-67
2023/06/12 04:19:50;;;;;;;24.10;16.52;;;17.10;99.90;;;;;;5071495;28;20708;-66
2023/06/12 04:22:16;;;;;;;25.33;16.52;;;17.00;99.90;;;;;;5071468;28;20172;-66
2023/06/12 04:24:42;;;;;;;24.67;17.35;;;17.10;99.90;;;;;;5071471;28;20160;-66
2023/06/12 04:27:11;;;;;;;24.83;16.85;;;17.10;99.90;;;;;;5071267;28;20172;-67
2023/06/12 04:29:38;;;;;;;22.60;17.08;;;17.10;99.90;;;;;;5071423;28;20210;-67
2023/06/12 04:32:07;;;;;;;24.55;16.58;;;17.00;99.90;;;;;;5071390;28;20200;-67
2023/06/12 04:34:39;;;;;;;29.17;18.13;;;17.00;99.90;;;;;;5067259;28;20690;-68
2023/06/12 04:37:08;;;;;;;26.90;17.55;;;16.90;99.90;;;;;;5062193;28;20269;-67
2023/06/12 04:39:45;;;;;;;24.75;17.25;;;17.00;99.90;;;;;;5051102;28;20647;-65
2023/06/12 04:42:16;;;;;;;28.02;17.77;;;17.00;99.90;;;;;;5056668;28;20197;-67
2023/06/12 04:44:42;;;;;;;26.33;17.80;;;17.00;99.90;;;;;;5051269;28;20184;-67
2023/06/12 04:47:10;;;;;;;28.65;17.77;;;17.10;99.90;;;;;;5051067;28;20644;-70
2023/06/12 04:49:37;;;;;;;23.30;16.52;;;17.10;99.90;;;;;;5050959;28;20547;-69
2023/06/12 04:52:03;;;;;;;23.55;16.85;;;17.20;99.90;;;;;;5051130;28;20209;-69
2023/06/12 04:54:35;;;;;;;24.33;17.38;;;17.30;99.90;;;;;;5055609;28;20181;-69
2023/06/12 04:57:23;;;;;;;23.60;17.17;;;17.30;99.90;;;;;;5054877;28;20192;-68
2023/06/12 04:59:48;;;;;;;26.67;17.10;;;17.40;99.90;;;;;;5081993;28;20168;-68
2023/06/12 05:02:14;;;;;;;29.20;17.55;;;17.40;99.90;;;;;;5075207;28;20206;-68
2023/06/12 05:04:41;;;;;;;23.08;16.35;;;17.40;99.90;;;;;;5066696;28;20267;-68
2023/06/12 05:07:16;;;;;;;29.17;17.98;;;17.50;99.90;;;;;;5058112;28;20177;-67
2023/06/12 05:09:46;;;;;;;25.30;16.67;;;17.60;99.90;;;;;;5070038;28;20559;-67
2023/06/12 05:12:12;;;;;;;25.85;17.17;;;17.60;99.90;;;;;;5071050;28;20208;-67
2023/06/12 05:14:39;;;;;;;25.73;17.45;;;17.70;99.90;;;;;;5070891;28;20271;-67
2023/06/12 05:17:05;;;;;;;25.17;16.38;;;17.70;99.90;;;;;;5070795;28;20180;-67
2023/06/12 05:19:30;;;;;;;28.88;16.90;;;17.70;99.90;;;;;;5070910;28;20175;-66
2023/06/12 05:21:56;;;;;;;25.05;17.80;;;17.80;99.90;;;;;;5070720;28;20640;-67
2023/06/12 05:24:22;;;;;;;23.35;17.02;;;17.80;99.90;;;;;;5070610;28;20185;-65
2023/06/12 05:26:47;;;;;;;25.77;17.35;;;17.90;99.90;;;;;;5070712;28;20179;-67
2023/06/12 05:29:13;;;;;;;29.73;17.33;;;17.90;99.90;;;;;;5070773;28;20638;-68
2023/06/12 05:31:39;;;;;;;24.98;17.40;;;18.00;99.90;;;;;;5070560;28;20210;-67
2023/06/12 05:34:04;;;;;;;27.33;17.48;;;18.10;99.90;;;;;;5074882;28;20180;-68
2023/06/12 05:36:30;;;;;;;24.63;17.58;;;18.10;99.90;;;;;;5073238;28;20639;-67
2023/06/12 05:38:56;;;;;;;27.77;18.15;;;18.10;99.90;;;;;;5074508;28;20259;-67
2023/06/12 05:41:22;;;;;;;27.45;17.60;;;18.20;99.90;;;;;;5074676;28;20184;-70
2023/06/12 05:43:47;;;;;;;27.20;17.90;;;18.10;99.90;;;;;;5074508;28;20180;-70
2023/06/12 05:46:13;;;;;;;29.10;18.77;;;18.20;99.90;;;;;;5074456;28;20172;-70
2023/06/12 05:48:39;;;;;;;26.63;18.17;;;18.20;99.90;;;;;;5074967;28;20261;-69
2023/06/12 05:51:06;;;;;;;30.65;17.60;;;18.20;99.90;;;;;;5074315;28;20643;-71
2023/06/12 05:53:33;;;;;;;28.42;17.27;;;18.30;99.90;;;;;;5074457;28;20219;-68
2023/06/12 05:55:59;;;;;;;23.50;16.83;;;18.30;99.90;;;;;;5074348;28;20259;-69
2023/06/12 05:58:24;;;;;;;27.02;18.13;;;18.40;99.90;;;;;;5074197;28;20684;-67
2023/06/12 06:00:52;;;;;;;26.00;18.30;;;18.50;99.90;;;;;;5074056;28;20634;-68
2023/06/12 06:03:19;;;;;;;24.17;17.63;;;18.50;99.90;;;;;;5074092;28;20649;-68
2023/06/12 06:05:45;;;;;;;26.52;18.15;;;18.50;99.90;;;;;;5074049;28;20176;-69
2023/06/12 06:08:12;;;;;;;26.85;18.50;;;18.50;99.90;;;;;;5074011;28;20682;-68
2023/06/12 06:10:38;;;;;;;25.63;19.27;;;18.50;99.90;;;;;;5073796;28;20178;-68
2023/06/12 06:13:03;;;;;;;30.05;19.15;;;18.60;99.90;;;;;;5054319;28;20944;-67
2023/06/12 06:15:29;;;;;;;28.85;19.95;;;18.60;99.90;;;;;;5053993;28;20640;-68
2023/06/12 06:17:56;;;;;;;31.88;19.73;;;18.50;99.90;;;;;;5053827;28;20201;-70
2023/06/12 06:20:21;;;;;;;27.42;19.35;;;18.60;99.90;;;;;;5054272;28;20169;-69
2023/06/12 06:22:47;;;;;;;27.27;19.02;;;18.70;99.90;;;;;;5039815;28;20305;-69
2023/06/12 06:25:13;;;;;;;31.23;19.38;;;18.70;99.90;;;;;;5054045;28;20251;-70
2023/06/12 06:27:39;;;;;;;24.52;18.80;;;18.80;99.90;;;;;;5057311;28;20215;-68
2023/06/12 06:30:05;;;;;;;28.67;18.23;;;18.90;99.90;;;;;;5072087;28;20206;-67
2023/06/12 06:32:31;;;;;;;25.90;18.70;;;18.90;99.90;;;;;;5073340;28;20240;-67
2023/06/12 06:34:56;;;;;;;27.95;19.08;;;19.00;99.90;;;;;;5073534;28;20196;-67
2023/06/12 06:37:22;;;;;;;24.95;17.98;;;19.00;99.90;;;;;;5073311;28;20691;-68
2023/06/12 06:39:48;;;;;;;27.67;18.33;;;19.10;99.90;;;;;;5073527;28;20192;-68
2023/06/12 06:42:13;;;;;;;23.95;17.52;;;19.10;99.90;;;;;;5073401;28;20173;-68
2023/06/12 06:44:39;;;;;;;23.90;16.60;;;19.20;99.90;;;;;;5047919;28;20599;-62
2023/06/12 06:47:05;;;;;;;22.05;16.17;;;19.30;99.90;;;;;;5053217;28;20170;-64
2023/06/12 06:49:30;;;;;;;24.38;17.33;;;19.40;99.90;;;;;;5056746;28;20180;-67
2023/06/12 06:51:56;;;;;;;24.85;16.67;;;19.40;99.90;;;;;;5066913;28;20764;-68
2023/06/12 06:54:22;;;;;;;24.27;16.40;;;19.50;99.90;;;;;;5067441;28;20216;-65
2023/06/12 06:56:48;;;;;;;22.13;16.38;;;19.60;99.90;;;;;;5072835;28;20196;-65
2023/06/12 06:59:15;;;;;;;23.60;16.20;;;19.60;99.90;;;;;;5060564;28;20176;-66
2023/06/12 07:01:41;;;;;;;25.17;16.02;;;19.70;99.90;;;;;;5052920;28;20185;-67
2023/06/12 07:04:07;;;;;;;23.98;15.20;;;19.90;99.90;;;;;;5052921;28;20166;-67
2023/06/12 07:06:33;;;;;;;19.65;15.38;;;20.10;99.90;;;;;;5052853;28;20203;-66
2023/06/12 07:09:02;;;;;;;23.13;15.23;;;20.20;99.90;;;;;;5061745;28;20165;-66
2023/06/12 07:11:28;;;;;;;19.63;15.40;;;20.30;99.90;;;;;;5072640;28;20675;-64
2023/06/12 07:13:54;;;;;;;19.38;15.18;;;20.20;99.90;;;;;;5072693;28;20177;-67
2023/06/12 07:16:20;;;;;;;20.63;15.65;;;20.20;99.90;;;;;;5072785;28;20593;-66
2023/06/12 07:18:45;;;;;;;22.08;16.65;;;20.20;99.90;;;;;;5056167;28;20540;-66
2023/06/12 07:21:11;;;;;;;27.05;16.23;;;20.30;99.90;;;;;;5052677;28;20176;-64
2023/06/12 07:23:37;;;;;;;23.20;16.48;;;20.30;99.90;;;;;;5066470;28;20216;-71
2023/06/12 07:26:02;;;;;;;20.92;15.82;;;20.30;99.90;;;;;;5072498;28;20218;-74
2023/06/12 07:28:28;;;;;;;23.45;16.17;;;20.40;99.90;;;;;;5066045;28;20173;-71
2023/06/12 07:30:54;;;;;;;20.60;15.57;;;20.40;99.90;;;;;;5052636;28;20169;-71
2023/06/12 07:33:19;;;;;;;20.98;15.90;;;20.50;99.90;;;;;;5052728;28;20772;-72
2023/06/12 07:35:45;;;;;;;21.23;16.08;;;20.50;99.90;;;;;;5074662;28;20578;-72
2023/06/12 07:38:11;;;;;;;22.02;15.95;;;20.60;99.90;;;;;;5078477;28;20292;-73
2023/06/12 07:40:37;;;;;;;26.35;16.02;;;20.60;99.90;;;;;;5073514;28;20173;-73
2023/06/12 07:43:02;;;;;;;21.25;15.68;;;20.60;99.90;;;;;;5072731;28;20644;-74
2023/06/12 07:45:28;;;;;;;22.95;15.30;;;20.60;99.90;;;;;;5051803;28;20180;-73
2023/06/12 07:47:57;;;;;;;20.30;14.57;;;20.70;99.90;;;;;;5075504;28;20180;-74
2023/06/12 07:50:26;;;;;;;20.88;15.02;;;20.70;99.90;;;;;;5073130;28;20183;-72
2023/06/12 07:52:52;;;;;;;18.67;14.93;;;20.90;99.90;;;;;;5072481;28;20212;-73
2023/06/12 07:55:18;;;;;;;17.08;13.80;;;21.30;99.90;;;;;;5066309;28;20281;-65
2023/06/12 07:57:43;;;;;;;18.40;14.38;;;21.50;99.90;;;;;;5068379;28;20207;-66
2023/06/12 08:00:10;;;;;;;16.60;13.90;;;21.40;99.90;;;;;;5071908;28;20177;-66
2023/06/12 08:02:35;;;;;;;17.13;13.25;;;21.30;99.90;;;;;;5071686;28;20650;-65
2023/06/12 08:05:03;;;;;;;15.27;12.40;;;21.10;99.90;;;;;;5071911;28;20183;-65
2023/06/12 08:07:30;;;;;;;19.38;13.00;;;21.20;99.90;;;;;;5070896;28;20192;-66
2023/06/12 08:09:56;;;;;;;21.50;13.13;;;21.40;99.90;;;;;;5054264;28;20574;-61
2023/06/12 08:12:22;;;;;;;18.85;14.13;;;21.60;99.90;;;;;;5066763;28;20219;-62
2023/06/12 08:14:49;;;;;;;14.65;12.88;;;21.70;99.90;;;;;;5051563;28;20208;-64
2023/06/12 08:17:15;;;;;;;15.52;12.52;;;21.80;99.90;;;;;;5051447;28;20169;-64
2023/06/12 08:19:41;;;;;;;12.95;11.57;;;22.10;99.90;;;;;;5051862;28;20185;-66
2023/06/12 08:22:08;;;;;;;17.30;12.40;;;22.50;99.90;;;;;;5035612;28;20643;-65
2023/06/12 08:24:37;;;;;;;19.52;14.15;;;22.60;99.90;;;;;;5051450;28;20177;-69
2023/06/12 08:27:03;;;;;;;15.40;12.48;;;22.70;99.90;;;;;;5052780;28;20168;-71
2023/06/12 08:29:29;;;;;;;16.85;12.25;;;22.80;99.90;;;;;;5051435;28;20169;-63
2023/06/12 08:31:55;;;;;;;17.05;12.80;;;22.90;99.90;;;;;;5070652;28;20219;-63
2023/06/12 08:34:25;;;;;;;14.65;11.98;;;22.80;99.90;;;;;;5070560;28;20173;-64
2023/06/12 08:36:52;;;;;;;18.98;13.82;;;22.90;99.90;;;;;;5070831;28;20705;-63
2023/06/12 08:39:18;;;;;;;17.67;12.77;;;22.90;99.90;;;;;;5068233;28;20650;-63
2023/06/12 08:42:07;;;;;;;15.32;12.68;;;23.00;99.90;;;;;;5062172;28;20169;-63
2023/06/12 08:44:33;;;;;;;17.13;12.80;;;23.00;99.90;;;;;;5066525;28;20636;-63
2023/06/12 08:47:02;;;;;;;17.20;12.80;;;23.10;99.90;;;;;;5068595;28;20257;-63
2023/06/12 08:49:30;;;;;;;24.55;13.82;;;23.10;99.90;;;;;;5054467;28;20173;-64
2023/06/12 08:51:56;;;;;;;17.27;13.13;;;23.40;99.90;;;;;;5051265;28;20295;-64
2023/06/12 08:54:22;;;;;;;16.13;13.07;;;23.30;99.90;;;;;;5064885;28;20172;-64
2023/06/12 08:56:48;;;;;;;17.27;14.05;;;23.50;99.90;;;;;;5070801;28;20165;-63
2023/06/12 08:59:15;;;;;;;18.60;13.70;;;23.40;99.90;;;;;;5070882;28;20260;-63
2023/06/12 09:01:41;;;;;;;18.77;13.75;;;23.40;99.90;;;;;;5069088;28;20172;-63
2023/06/12 09:04:16;;;;;;;26.70;13.93;;;23.30;99.90;;;;;;5068257;28;20245;-64
2023/06/12 09:06:43;;;;;;;14.07;12.35;;;23.40;99.90;;;;;;5051913;28;20205;-64
2023/06/12 09:09:09;;;;;;;14.77;12.68;;;23.40;99.90;;;;;;5050592;28;20260;-64
2023/06/12 09:11:36;;;;;;;17.73;12.93;;;23.50;99.90;;;;;;5055755;28;20291;-64
2023/06/12 09:14:02;;;;;;;15.25;13.18;;;23.70;99.90;;;;;;5060466;28;20169;-64
2023/06/12 09:16:27;;;;;;;16.90;13.30;;;24.10;99.90;;;;;;5051559;28;20203;-63
2023/06/12 09:18:54;;;;;;;14.73;12.90;;;24.20;99.90;;;;;;5050935;28;20518;-64
2023/06/12 09:21:24;;;;;;;14.95;12.48;;;24.10;99.90;;;;;;5050810;28;20173;-63
2023/06/12 09:23:51;;;;;;;14.13;11.63;;;24.30;99.90;;;;;;5050668;28;20647;-63
2023/06/12 09:26:21;;;;;;;26.92;14.15;;;24.60;99.90;;;;;;5050853;28;20549;-64
2023/06/12 09:28:51;;;;;;;25.05;13.77;;;24.90;99.90;;;;;;5050781;28;20318;-63
2023/06/12 09:31:16;;;;;;;17.60;12.90;;;24.70;99.90;;;;;;5050558;28;20208;-63
2023/06/12 09:33:44;;;;;;;14.68;13.10;;;24.70;99.90;;;;;;5050591;28;20173;-63
2023/06/12 09:36:12;;;;;;;16.75;12.63;;;24.60;99.90;;;;;;5050578;28;20196;-64
2023/06/12 09:38:38;;;;;;;22.23;13.45;;;24.70;99.90;;;;;;5050257;28;20223;-64
2023/06/12 09:41:06;;;;;;;17.48;12.07;;;25.00;99.90;;;;;;5050338;28;20536;-64
2023/06/12 09:43:32;;;;;;;17.60;13.95;;;25.30;99.90;;;;;;5050139;28;20655;-64
2023/06/12 09:46:02;;;;;;;17.02;14.63;;;25.30;99.90;;;;;;5050373;28;20198;-64
2023/06/12 09:48:36;;;;;;;17.45;13.65;;;25.50;99.90;;;;;;5050753;28;20531;-65
2023/06/12 09:51:08;;;;;;;19.38;14.30;;;25.60;99.90;;;;;;5050370;28;20357;-64
2023/06/12 09:53:36;;;;;;;15.80;12.60;;;26.00;99.90;;;;;;5050308;28;20205;-64
2023/06/12 09:56:05;;;;;;;15.20;12.65;;;25.90;99.90;;;;;;5050346;28;20272;-64
2023/06/12 09:58:33;;;;;;;16.80;13.77;;;26.30;99.90;;;;;;5050283;28;20170;-64
2023/06/12 10:01:01;;;;;;;16.70;13.25;;;26.20;99.90;;;;;;5050383;28;20268;-64
2023/06/12 10:03:28;;;;;;;14.20;11.82;;;26.50;99.90;;;;;;5050161;28;20196;-63
2023/06/12 10:05:55;;;;;;;17.70;12.95;;;27.00;99.90;;;;;;5050203;28;20679;-64
2023/06/12 10:08:21;;;;;;;19.40;13.40;;;26.60;99.90;;;;;;5050046;28;20180;-64
2023/06/12 10:10:48;;;;;;;18.75;13.15;;;26.70;99.90;;;;;;5049999;28;20162;-64
2023/06/12 10:13:14;;;;;;;15.57;12.60;;;27.30;99.90;;;;;;5053079;28;20212;-64
2023/06/12 10:15:40;;;;;;;18.85;13.85;;;27.40;99.90;;;;;;5070209;28;20635;-65
2023/06/12 10:18:08;;;;;;;15.48;13.88;;;27.20;99.90;;;;;;5070003;28;20180;-63
2023/06/12 10:20:35;;;;;;;16.45;13.00;;;26.90;99.90;;;;;;5067271;28;20184;-64
2023/06/12 10:23:02;;;;;;;17.75;13.73;;;26.80;99.90;;;;;;5063928;28;20251;-62
2023/06/12 10:25:30;;;;;;;14.32;12.35;;;26.60;99.90;;;;;;5053499;28;20169;-63
2023/06/12 10:27:57;;;;;;;18.15;12.18;;;26.70;99.90;;;;;;5053371;28;20205;-63
2023/06/12 10:30:22;;;;;;;15.93;12.50;;;26.90;99.90;;;;;;5065833;28;20184;-63
2023/06/12 10:32:48;;;;;;;15.02;13.43;;;27.10;99.90;;;;;;5053189;28;20205;-64
2023/06/12 10:35:29;;;;;;;16.02;13.13;;;27.10;99.90;;;;;;5051787;28;20197;-65
2023/06/12 10:37:55;;;;;;;17.45;12.48;;;26.90;99.90;;;;;;5052952;28;20227;-64
2023/06/12 10:40:22;;;;;;;17.65;13.75;;;26.90;99.90;;;;;;5053468;28;20333;-63
2023/06/12 10:42:54;;;;;;;17.73;13.82;;;26.90;99.90;;;;;;5052978;28;20173;-64
2023/06/12 10:45:24;;;;;;;18.08;13.63;;;26.90;99.90;;;;;;5054744;28;20176;-64
2023/06/12 10:48:02;;;;;;;18.08;13.25;;;27.60;99.90;;;;;;5053300;28;20279;-64
2023/06/12 10:50:49;;;;;;;16.38;13.10;;;27.30;99.90;;;;;;5053253;28;20602;-64
2023/06/12 10:53:20;;;;;;;18.05;13.93;;;27.70;99.90;;;;;;5052831;28;20243;-63
2023/06/12 10:55:46;;;;;;;17.80;15.48;;;26.80;99.90;;;;;;5061500;28;20225;-64
2023/06/12 10:58:18;;;;;;;24.63;17.60;;;27.30;99.90;;;;;;5072656;28;20177;-64
2023/06/12 11:00:52;;;;;;;19.13;15.93;;;27.20;99.90;;;;;;5072878;28;20175;-64
2023/06/12 11:03:25;;;;;;;25.25;15.80;;;27.50;99.90;;;;;;5072781;28;20229;-63
2023/06/12 11:05:58;;;;;;;16.00;14.32;;;27.50;99.90;;;;;;5071279;28;20243;-63
2023/06/12 11:08:26;;;;;;;20.60;14.73;;;27.50;99.90;;;;;;5072625;28;20176;-64
2023/06/12 11:10:52;;;;;;;19.00;14.85;;;28.20;99.90;;;;;;5054231;28;20581;-64
2023/06/12 11:13:24;;;;;;;22.83;16.58;;;28.30;99.90;;;;;;5051802;28;20217;-63
2023/06/12 11:15:51;;;;;;;19.27;15.18;;;28.10;99.90;;;;;;5053570;28;20173;-64
2023/06/12 11:18:18;;;;;;;18.58;16.00;;;28.70;99.90;;;;;;5052832;28;20222;-64
2023/06/12 11:20:51;;;;;;;25.38;16.77;;;28.80;99.90;;;;;;5067551;28;20217;-66
2023/06/12 11:23:16;;;;;;;20.38;17.35;;;28.80;99.90;;;;;;5070307;28;20222;-64
2023/06/12 11:25:45;;;;;;;18.95;16.90;;;28.10;99.90;;;;;;5057634;28;20173;-64
2023/06/12 11:28:12;;;;;;;21.77;15.45;;;27.60;99.90;;;;;;5056486;28;20177;-64
2023/06/12 11:30:39;;;;;;;23.52;17.00;;;27.40;99.90;;;;;;5068226;28;20689;-65
2023/06/12 11:33:16;;;;;;;22.73;18.85;;;27.00;99.90;;;;;;5072388;28;20249;-66
2023/06/12 11:35:47;;;;;;;21.90;18.20;;;26.80;99.90;;;;;;5072529;28;20172;-65
2023/06/12 11:38:14;;;;;;;22.50;18.13;;;26.40;99.90;;;;;;5070002;28;20220;-65
2023/06/12 11:40:41;;;;;;;20.80;17.60;;;26.50;99.90;;;;;;5064513;28;20180;-65
2023/06/12 11:43:07;;;;;;;22.50;18.77;;;26.30;99.90;;;;;;5056365;28;20194;-65
2023/06/12 11:45:34;;;;;;;21.63;16.75;;;25.80;99.90;;;;;;5052081;28;20540;-65
2023/06/12 11:48:00;;;;;;;22.58;18.15;;;25.90;99.90;;;;;;5052082;28;20185;-64
2023/06/12 11:50:27;;;;;;;23.70;18.40;;;25.90;99.90;;;;;;5051979;28;20632;-65
2023/06/12 11:52:54;;;;;;;26.02;19.88;;;25.90;99.90;;;;;;5056000;28;20683;-65
2023/06/12 11:55:21;;;;;;;26.83;20.30;;;26.10;99.90;;;;;;5052293;28;20204;-65
2023/06/12 11:57:49;;;;;;;17.95;15.90;;;26.10;99.90;;;;;;5052028;28;20183;-64
2023/06/12 12:00:20;;;;;;;17.48;14.23;;;26.20;99.90;;;;;;5051781;28;20180;-64
2023/06/12 12:02:52;;;;;;;21.20;14.05;;;25.80;99.90;;;;;;5055646;28;20173;-64
2023/06/12 12:05:22;;;;;;;24.70;14.70;;;25.40;99.90;;;;;;5051957;28;20644;-64
2023/06/12 12:07:59;;;;;;;20.30;14.32;;;25.60;99.90;;;;;;5071630;28;20189;-64
2023/06/12 12:10:27;;;;;;;20.52;14.88;;;25.80;99.90;;;;;;5071774;28;20176;-64
2023/06/12 12:13:01;;;;;;;25.50;17.35;;;25.60;99.90;;;;;;5070018;28;20239;-64
2023/06/12 12:15:31;;;;;;;26.30;16.48;;;25.60;99.90;;;;;;5071483;28;20168;-64
2023/06/12 12:17:58;;;;;;;19.67;15.63;;;25.60;99.90;;;;;;5053625;28;20198;-64
2023/06/12 12:20:28;;;;;;;24.65;14.80;;;25.90;99.90;;;;;;5071395;28;20193;-64
2023/06/12 12:22:58;;;;;;;18.17;14.82;;;27.10;99.90;;;;;;5048561;28;20216;-64
2023/06/12 12:25:29;;;;;;;26.20;14.00;;;27.70;99.90;;;;;;5047635;28;20192;-63
2023/06/12 12:27:59;;;;;;;19.55;13.75;;;28.20;99.90;;;;;;5068780;28;20187;-63
2023/06/12 12:30:25;;;;;;;19.00;13.20;;;28.00;99.90;;;;;;5071304;28;20249;-63